createdAt,value
2022-12-23T00:00:46.632Z,2.90
2022-12-23T00:01:46.535Z,3.10
2022-12-23T00:02:46.856Z,3.40
2022-12-23T00:03:46.600Z,3.00
2022-12-23T00:04:46.372Z,3.20
2022-12-23T00:05:46.698Z,3.60
2022-12-23T00:06:46.672Z,2.90
2022-12-23T00:07:46.473Z,3.30
2022-12-23T00:08:46.699Z,2.80
2022-12-23T00:09:46.388Z,2.80
2022-12-23T00:10:46.318Z,2.90
2022-12-23T00:11:46.410Z,3.10
2022-12-23T00:12:46.400Z,2.90
2022-12-23T00:13:46.498Z,2.90
2022-12-23T00:14:46.314Z,2.70
2022-12-23T00:15:46.628Z,3.20
2022-12-23T00:16:46.697Z,3.00
2022-12-23T00:17:46.648Z,3.10
2022-12-23T00:18:46.237Z,2.80
2022-12-23T00:19:46.449Z,3.00
2022-12-23T00:20:46.243Z,3.00
2022-12-23T00:21:46.881Z,2.80
2022-12-23T00:22:46.875Z,2.80
2022-12-23T00:23:46.196Z,2.90
2022-12-23T00:24:46.275Z,3.10
2022-12-23T00:25:46.703Z,3.00
2022-12-23T00:26:46.921Z,3.20
2022-12-23T00:27:46.916Z,2.60
2022-12-23T00:28:46.192Z,3.10
2022-12-23T00:29:46.204Z,2.70
2022-12-23T00:30:46.213Z,2.70
2022-12-23T00:31:46.285Z,2.90
2022-12-23T00:32:46.226Z,2.60
2022-12-23T00:33:46.241Z,3.00
2022-12-23T00:34:46.177Z,2.90
2022-12-23T00:35:46.400Z,2.70
2022-12-23T00:36:46.169Z,3.00
2022-12-23T00:37:46.177Z,2.50
2022-12-23T00:38:46.184Z,2.60
2022-12-23T00:39:46.309Z,2.50
2022-12-23T00:40:46.183Z,2.70
2022-12-23T00:41:46.412Z,2.80
2022-12-23T00:42:46.193Z,2.60
2022-12-23T00:43:46.417Z,2.90
2022-12-23T00:44:46.128Z,2.60
2022-12-23T00:45:46.585Z,2.60
2022-12-23T00:46:46.231Z,2.50
2022-12-23T00:47:46.133Z,2.50
2022-12-23T00:48:46.060Z,2.40
2022-12-23T00:49:46.670Z,2.80
2022-12-23T00:50:46.761Z,2.70
2022-12-23T00:51:46.057Z,2.50
2022-12-23T00:52:46.475Z,2.50
2022-12-23T00:53:46.834Z,2.60
2022-12-23T00:54:46.914Z,2.50
2022-12-23T00:55:46.900Z,2.60
2022-12-23T00:56:46.407Z,2.90
2022-12-23T00:57:46.592Z,2.60
2022-12-23T00:58:46.864Z,2.80
2022-12-23T00:59:47.021Z,2.90
2022-12-23T01:00:46.206Z,2.40
2022-12-23T01:01:46.333Z,2.60
2022-12-23T01:02:46.264Z,2.90
2022-12-23T01:03:46.919Z,2.80
2022-12-23T01:04:46.010Z,3.00
2022-12-23T01:05:46.548Z,3.50
2022-12-23T01:06:46.228Z,2.80
2022-12-23T01:07:45.957Z,2.80
2022-12-23T01:08:46.928Z,3.00
2022-12-23T01:09:45.980Z,2.80
2022-12-23T01:10:45.958Z,2.80
2022-12-23T01:11:46.065Z,2.80
2022-12-23T01:12:45.908Z,3.00
2022-12-23T01:13:46.208Z,2.90
2022-12-23T01:14:45.907Z,2.90
2022-12-23T01:15:45.895Z,3.10
2022-12-23T01:16:45.937Z,3.60
2022-12-23T01:17:45.898Z,3.00
2022-12-23T01:18:45.913Z,3.10
2022-12-23T01:19:45.852Z,3.10
2022-12-23T01:20:45.877Z,3.00
2022-12-23T01:21:45.845Z,3.50
2022-12-23T01:22:45.864Z,3.00
2022-12-23T01:23:45.869Z,3.60
2022-12-23T01:24:45.874Z,3.40
2022-12-23T01:25:45.897Z,3.20
2022-12-23T01:26:45.888Z,3.10
2022-12-23T01:27:45.815Z,3.10
2022-12-23T01:28:45.978Z,3.80
2022-12-23T01:29:45.973Z,3.30
2022-12-23T01:30:45.783Z,3.60
2022-12-23T01:31:46.002Z,3.30
2022-12-23T01:32:45.761Z,3.40
2022-12-23T01:33:46.009Z,3.20
2022-12-23T01:34:45.735Z,3.50
2022-12-23T01:35:45.752Z,3.70
2022-12-23T01:36:45.757Z,3.40
2022-12-23T01:37:45.838Z,3.20
2022-12-23T01:38:45.972Z,3.40
2022-12-23T01:39:45.857Z,3.20
2022-12-23T01:40:46.021Z,3.60
2022-12-23T01:41:45.993Z,3.40
2022-12-23T01:42:45.665Z,3.40
2022-12-23T01:43:45.682Z,3.50
2022-12-23T01:44:45.865Z,3.90
2022-12-23T01:45:45.744Z,4.00
2022-12-23T01:46:45.674Z,3.80
2022-12-23T01:47:45.681Z,3.60
2022-12-23T01:48:45.839Z,3.60
2022-12-23T01:49:45.841Z,4.00
2022-12-23T01:50:45.911Z,3.70
2022-12-23T01:51:45.924Z,3.80
2022-12-23T01:52:45.691Z,3.40
2022-12-23T01:53:46.067Z,3.40
2022-12-23T01:54:46.071Z,3.60
2022-12-23T01:55:46.135Z,3.70
2022-12-23T01:56:45.569Z,3.60
2022-12-23T01:57:45.678Z,3.90
2022-12-23T01:58:45.759Z,3.70
2022-12-23T01:59:46.320Z,3.70
2022-12-23T02:00:45.585Z,3.60
2022-12-23T02:01:46.019Z,3.70
2022-12-23T02:02:45.993Z,3.50
2022-12-23T02:03:45.680Z,3.80
2022-12-23T02:04:45.943Z,3.80
2022-12-23T02:05:45.946Z,3.20
2022-12-23T02:06:45.555Z,3.50
2022-12-23T02:07:45.556Z,3.60
2022-12-23T02:08:46.377Z,3.60
2022-12-23T02:09:46.447Z,4.00
2022-12-23T02:10:45.979Z,3.70
2022-12-23T02:11:46.187Z,3.90
2022-12-23T02:12:45.785Z,3.60
2022-12-23T02:13:46.315Z,3.70
2022-12-23T02:14:45.654Z,4.10
2022-12-23T02:15:45.629Z,3.90
2022-12-23T02:16:45.488Z,4.50
2022-12-23T02:17:45.427Z,4.00
2022-12-23T02:18:46.377Z,3.70
2022-12-23T02:19:45.835Z,3.70
2022-12-23T02:20:45.432Z,4.00
2022-12-23T02:21:46.055Z,4.20
2022-12-23T02:22:45.498Z,3.70
2022-12-23T02:23:45.517Z,4.70
2022-12-23T02:24:45.404Z,4.30
2022-12-23T02:25:45.463Z,3.80
2022-12-23T02:26:45.527Z,4.00
2022-12-23T02:27:45.538Z,4.10
2022-12-23T02:28:45.703Z,3.90
2022-12-23T02:29:45.693Z,3.80
2022-12-23T02:30:45.548Z,4.40
2022-12-23T02:31:45.383Z,4.10
2022-12-23T02:32:45.367Z,3.80
2022-12-23T02:33:45.311Z,4.00
2022-12-23T02:34:45.330Z,4.00
2022-12-23T02:35:45.335Z,4.10
2022-12-23T02:36:45.324Z,3.80
2022-12-23T02:37:45.330Z,3.90
2022-12-23T02:38:45.349Z,4.20
2022-12-23T02:39:45.361Z,4.10
2022-12-23T02:40:45.372Z,4.80
2022-12-23T02:41:45.382Z,4.50
2022-12-23T02:42:45.427Z,4.30
2022-12-23T02:43:45.272Z,4.60
2022-12-23T02:44:45.422Z,4.50
2022-12-23T02:45:45.321Z,4.60
2022-12-23T02:46:45.390Z,4.30
2022-12-23T02:47:45.248Z,4.10
2022-12-23T02:48:45.243Z,4.30
2022-12-23T02:49:45.283Z,4.20
2022-12-23T02:50:45.231Z,4.20
2022-12-23T02:51:45.239Z,4.30
2022-12-23T02:52:45.194Z,4.40
2022-12-23T02:53:45.192Z,4.30
2022-12-23T02:54:45.271Z,4.50
2022-12-23T02:55:45.273Z,4.00
2022-12-23T02:56:45.198Z,3.80
2022-12-23T02:57:45.208Z,4.20
2022-12-23T02:58:45.296Z,4.00
2022-12-23T02:59:45.336Z,4.40
2022-12-23T03:00:45.149Z,4.10
2022-12-23T03:01:45.203Z,4.30
2022-12-23T03:02:45.590Z,4.20
2022-12-23T03:03:45.226Z,4.00
2022-12-23T03:04:45.332Z,4.30
2022-12-23T03:05:45.098Z,4.30
2022-12-23T03:06:45.125Z,4.30
2022-12-23T03:07:45.354Z,4.10
2022-12-23T03:08:45.558Z,4.60
2022-12-23T03:09:45.567Z,4.10
2022-12-23T03:10:45.582Z,4.20
2022-12-23T03:11:45.055Z,3.90
2022-12-23T03:12:45.184Z,4.40
2022-12-23T03:13:45.226Z,4.20
2022-12-23T03:14:45.598Z,3.90
2022-12-23T03:15:45.054Z,4.40
2022-12-23T03:16:45.015Z,4.00
2022-12-23T03:17:45.621Z,3.90
2022-12-23T03:18:45.624Z,4.60
2022-12-23T03:19:45.101Z,4.60
2022-12-23T03:20:45.642Z,3.90
2022-12-23T03:21:45.443Z,4.10
2022-12-23T03:22:45.033Z,4.20
2022-12-23T03:23:50.416Z,4.40
2022-12-23T03:24:45.671Z,4.30
2022-12-23T03:25:44.985Z,4.30
2022-12-23T03:26:45.680Z,4.80
2022-12-23T03:27:45.641Z,5.20
2022-12-23T03:28:45.733Z,5.10
2022-12-23T03:29:45.107Z,5.70
2022-12-23T03:30:45.162Z,5.60
2022-12-23T03:31:45.108Z,5.80
2022-12-23T03:32:45.132Z,6.10
2022-12-23T03:33:44.989Z,6.40
2022-12-23T03:34:44.988Z,6.60
2022-12-23T03:35:44.967Z,6.90
2022-12-23T03:36:45.357Z,6.60
2022-12-23T03:37:44.954Z,6.90
2022-12-23T03:38:44.976Z,7.00
2022-12-23T03:39:45.179Z,6.40
2022-12-23T03:40:44.987Z,7.10
2022-12-23T03:41:44.974Z,7.10
2022-12-23T03:42:45.009Z,7.00
2022-12-23T03:43:50.656Z,7.30
2022-12-23T03:45:10.758Z,6.50
2022-12-23T03:45:45.013Z,7.00
2022-12-23T03:46:45.282Z,7.20
2022-12-23T03:47:45.244Z,6.60
2022-12-23T03:48:45.214Z,6.60
2022-12-23T03:49:45.447Z,7.10
2022-12-23T03:50:45.447Z,6.80
2022-12-23T03:51:45.437Z,7.30
2022-12-23T03:52:45.257Z,7.10
2022-12-23T03:53:45.475Z,7.10
2022-12-23T03:54:44.856Z,6.70
2022-12-23T03:55:45.678Z,7.30
2022-12-23T03:56:45.069Z,6.70
2022-12-23T03:57:45.686Z,7.60
2022-12-23T03:58:45.496Z,7.20
2022-12-23T03:59:45.086Z,7.80
2022-12-23T04:00:45.709Z,7.80
2022-12-23T04:01:44.794Z,8.00
2022-12-23T04:02:44.893Z,8.90
2022-12-23T04:03:44.838Z,8.20
2022-12-23T04:04:44.732Z,8.10
2022-12-23T04:05:44.725Z,8.40
2022-12-23T04:06:44.734Z,8.30
2022-12-23T04:07:44.737Z,8.10
2022-12-23T04:08:44.730Z,9.50
2022-12-23T04:09:44.803Z,9.10
2022-12-23T04:10:44.759Z,9.20
2022-12-23T04:11:44.802Z,9.50
2022-12-23T04:12:44.891Z,8.50
2022-12-23T04:13:44.815Z,9.70
2022-12-23T04:14:44.782Z,9.10
2022-12-23T04:15:44.828Z,9.10
2022-12-23T04:16:44.641Z,8.70
2022-12-23T04:17:44.627Z,9.10
2022-12-23T04:18:44.611Z,9.20
2022-12-23T04:19:44.819Z,8.70
2022-12-23T04:20:44.621Z,9.00
2022-12-23T04:21:44.855Z,8.70
2022-12-23T04:22:44.675Z,9.00
2022-12-23T04:23:44.843Z,9.30
2022-12-23T04:24:44.672Z,8.40
2022-12-23T04:25:44.678Z,8.40
2022-12-23T04:26:44.711Z,8.50
2022-12-23T04:27:44.703Z,8.40
2022-12-23T04:28:44.921Z,8.90
2022-12-23T04:29:44.926Z,8.10
2022-12-23T04:30:44.717Z,8.20
2022-12-23T04:31:44.803Z,8.10
2022-12-23T04:32:44.767Z,8.20
2022-12-23T04:33:44.959Z,8.80
2022-12-23T04:34:44.496Z,8.10
2022-12-23T04:35:44.501Z,8.30
2022-12-23T04:36:44.518Z,7.50
2022-12-23T04:37:45.178Z,8.10
2022-12-23T04:38:45.160Z,8.10
2022-12-23T04:39:44.450Z,7.70
2022-12-23T04:40:44.757Z,7.20
2022-12-23T04:41:44.724Z,8.00
2022-12-23T04:42:44.439Z,7.20
2022-12-23T04:43:49.313Z,7.70
2022-12-23T04:44:44.580Z,6.70
2022-12-23T04:45:44.998Z,7.30
2022-12-23T04:46:45.263Z,6.70
2022-12-23T04:47:44.851Z,6.80
2022-12-23T04:48:44.386Z,7.40
2022-12-23T04:49:44.624Z,6.80
2022-12-23T04:52:11.341Z,7.60
2022-12-23T04:53:10.607Z,7.40
2022-12-23T04:54:10.448Z,7.60
2022-12-23T04:55:10.454Z,7.20
2022-12-23T04:56:10.464Z,7.30
2022-12-23T04:57:10.469Z,7.60
2022-12-23T04:58:10.672Z,7.50
2022-12-23T04:59:10.391Z,7.50
2022-12-23T05:00:10.579Z,7.90
2022-12-23T05:01:10.580Z,8.30
2022-12-23T05:02:10.754Z,7.70
2022-12-23T05:03:10.464Z,7.20
2022-12-23T05:04:10.526Z,7.60
2022-12-23T05:05:10.512Z,8.00
2022-12-23T05:06:10.533Z,8.00
2022-12-23T05:07:10.532Z,7.60
2022-12-23T05:08:10.345Z,8.00
2022-12-23T05:09:10.541Z,8.20
2022-12-23T05:10:10.552Z,8.30
2022-12-23T05:11:10.564Z,8.50
2022-12-23T05:12:10.562Z,8.30
2022-12-23T05:13:10.701Z,8.00
2022-12-23T05:14:10.574Z,7.90
2022-12-23T05:15:10.330Z,8.30
2022-12-23T05:16:10.643Z,8.60
2022-12-23T05:17:10.403Z,8.90
2022-12-23T05:18:10.398Z,8.70
2022-12-23T05:19:10.428Z,9.00
2022-12-23T05:20:10.408Z,9.10
2022-12-23T05:21:10.418Z,8.70
2022-12-23T05:22:10.420Z,9.20
2022-12-23T05:23:10.553Z,9.30
2022-12-23T05:24:10.432Z,9.30
2022-12-23T05:25:10.440Z,9.70
2022-12-23T05:26:10.243Z,9.70
2022-12-23T05:27:10.455Z,10.00
2022-12-23T05:28:10.689Z,10.00
2022-12-23T05:29:10.667Z,10.10
2022-12-23T05:30:10.491Z,10.30
2022-12-23T05:31:10.555Z,10.10
2022-12-23T05:32:10.341Z,10.30
2022-12-23T05:33:10.302Z,9.90
2022-12-23T05:34:10.317Z,9.30
2022-12-23T05:35:10.349Z,10.50
2022-12-23T05:36:10.328Z,9.50
2022-12-23T05:37:10.155Z,9.60
2022-12-23T05:38:10.142Z,9.60
2022-12-23T05:39:10.534Z,9.30
2022-12-23T05:40:10.557Z,9.50
2022-12-23T05:41:10.550Z,9.90
2022-12-23T05:42:10.166Z,9.30
2022-12-23T05:43:10.674Z,9.20
2022-12-23T05:44:10.687Z,10.20
2022-12-23T05:45:10.783Z,8.80
2022-12-23T05:46:10.908Z,10.30
2022-12-23T05:47:10.188Z,9.60
2022-12-23T05:48:11.037Z,9.20
2022-12-23T05:49:10.595Z,9.60
2022-12-23T05:50:10.028Z,10.20
2022-12-23T05:51:10.053Z,9.30
2022-12-23T05:52:10.074Z,9.00
2022-12-23T05:53:10.064Z,9.30
2022-12-23T05:54:10.122Z,8.30
2022-12-23T05:55:10.101Z,8.50
2022-12-23T05:56:10.063Z,8.80
2022-12-23T05:57:10.282Z,8.80
2022-12-23T05:58:10.066Z,9.00
2022-12-23T05:59:10.302Z,8.50
2022-12-23T06:00:10.079Z,8.60
2022-12-23T06:01:10.282Z,8.50
2022-12-23T06:02:10.409Z,8.70
2022-12-23T06:03:10.443Z,8.10
2022-12-23T06:04:10.203Z,7.80
2022-12-23T06:05:09.930Z,8.60
2022-12-23T06:06:10.719Z,8.10
2022-12-23T06:07:10.734Z,8.10
2022-12-23T06:08:09.909Z,8.30
2022-12-23T06:09:09.911Z,8.10
2022-12-23T06:10:10.172Z,8.20
2022-12-23T06:11:10.139Z,8.70
2022-12-23T06:12:10.138Z,8.50
2022-12-23T06:13:10.141Z,8.30
2022-12-23T06:14:09.958Z,8.10
2022-12-23T06:15:10.363Z,8.30
2022-12-23T06:16:10.404Z,8.20
2022-12-23T06:17:09.989Z,8.60
2022-12-23T06:18:10.197Z,8.00
2022-12-23T06:19:09.874Z,8.10
2022-12-23T06:20:17.873Z,8.00
2022-12-23T06:21:10.124Z,7.70
2022-12-23T06:22:10.200Z,7.30
2022-12-23T06:23:09.848Z,7.20
2022-12-23T06:24:09.815Z,7.60
2022-12-23T06:25:09.806Z,7.30
2022-12-23T06:26:09.818Z,7.00
2022-12-23T06:27:10.446Z,6.80
2022-12-23T06:28:09.839Z,6.60
2022-12-23T06:29:09.830Z,7.10
2022-12-23T06:30:09.842Z,6.10
2022-12-23T06:31:09.861Z,6.50
2022-12-23T06:32:09.952Z,7.10
2022-12-23T06:33:09.856Z,6.70
2022-12-23T06:34:09.905Z,6.60
2022-12-23T06:35:09.918Z,6.10
2022-12-23T06:36:09.714Z,6.50
2022-12-23T06:37:09.926Z,6.30
2022-12-23T06:38:12.179Z,5.90
2022-12-23T06:39:09.703Z,6.20
2022-12-23T06:40:09.942Z,6.60
2022-12-23T06:41:10.121Z,6.20
2022-12-23T06:42:10.133Z,6.40
2022-12-23T06:43:09.964Z,6.40
2022-12-23T06:44:10.140Z,6.40
2022-12-23T06:45:09.977Z,6.40
2022-12-23T06:46:09.724Z,6.70
2022-12-23T06:47:09.758Z,6.20
2022-12-23T06:48:09.813Z,6.90
2022-12-23T06:49:13.430Z,6.40
2022-12-23T06:50:09.784Z,6.10
2022-12-23T06:51:09.869Z,6.10
2022-12-23T06:52:09.878Z,6.00
2022-12-23T06:53:09.638Z,5.90
2022-12-23T06:54:09.833Z,6.70
2022-12-23T06:55:09.823Z,6.50
2022-12-23T06:56:09.618Z,6.10
2022-12-23T06:57:10.059Z,6.30
2022-12-23T06:58:10.275Z,7.00
2022-12-23T06:59:09.551Z,6.00
2022-12-23T07:00:09.677Z,6.00
2022-12-23T07:01:10.359Z,6.10
2022-12-23T07:02:10.148Z,6.40
2022-12-23T07:03:10.367Z,6.30
2022-12-23T07:04:09.599Z,6.40
2022-12-23T07:05:09.662Z,6.20
2022-12-23T07:06:10.327Z,6.40
2022-12-23T07:07:10.350Z,6.80
2022-12-23T07:08:09.901Z,6.20
2022-12-23T07:09:09.687Z,6.60
2022-12-23T07:10:10.352Z,6.70
2022-12-23T07:11:10.357Z,6.60
2022-12-23T07:12:09.704Z,6.60
2022-12-23T07:13:10.317Z,6.50
2022-12-23T07:14:09.556Z,7.00
2022-12-23T07:15:09.934Z,6.10
2022-12-23T07:16:09.582Z,6.40
2022-12-23T07:17:09.526Z,6.60
2022-12-23T07:18:09.945Z,6.00
2022-12-23T07:19:09.726Z,6.50
2022-12-23T07:20:09.477Z,6.30
2022-12-23T07:21:20.024Z,5.90
2022-12-23T07:22:09.475Z,6.40
2022-12-23T07:23:09.573Z,6.20
2022-12-23T07:24:09.458Z,5.70
2022-12-23T07:25:09.453Z,6.20
2022-12-23T07:26:09.605Z,6.00
2022-12-23T07:27:09.613Z,6.20
2022-12-23T07:28:09.404Z,6.30
2022-12-23T07:29:09.624Z,6.10
2022-12-23T07:30:09.692Z,6.30
2022-12-23T07:31:09.819Z,6.60
2022-12-23T07:32:09.934Z,6.50
2022-12-23T07:33:09.844Z,6.70
2022-12-23T07:34:09.502Z,6.60
2022-12-23T07:35:09.449Z,6.90
2022-12-23T07:36:09.321Z,6.90
2022-12-23T07:37:09.553Z,7.00
2022-12-23T07:38:10.105Z,6.80
2022-12-23T07:39:10.157Z,6.90
2022-12-23T07:40:09.891Z,6.50
2022-12-23T07:41:09.548Z,7.10
2022-12-23T07:42:42.686Z,7.10
2022-12-23T07:43:09.311Z,6.70
2022-12-23T07:44:09.769Z,6.90
2022-12-23T07:45:09.274Z,7.50
2022-12-23T07:46:09.350Z,7.30
2022-12-23T07:47:09.273Z,7.40
2022-12-23T07:48:09.307Z,7.60
2022-12-23T07:49:09.241Z,7.10
2022-12-23T07:50:09.270Z,7.70
2022-12-23T07:51:09.327Z,7.70
2022-12-23T07:52:09.351Z,7.60
2022-12-23T07:53:09.252Z,7.60
2022-12-23T07:54:09.201Z,7.40
2022-12-23T07:55:09.223Z,7.30
2022-12-23T07:56:09.389Z,7.00
2022-12-23T07:57:09.254Z,7.00
2022-12-23T07:58:09.207Z,6.60
2022-12-23T07:59:09.191Z,6.70
2022-12-23T08:00:09.269Z,6.90
2022-12-23T08:01:09.465Z,7.50
2022-12-23T08:02:09.283Z,7.20
2022-12-23T08:03:09.240Z,7.30
2022-12-23T08:04:09.529Z,7.10
2022-12-23T08:05:09.506Z,7.60
2022-12-23T08:06:09.519Z,7.80
2022-12-23T08:07:09.236Z,7.80
2022-12-23T08:08:09.133Z,7.80
2022-12-23T08:09:09.320Z,8.40
2022-12-23T08:10:09.553Z,8.10
2022-12-23T08:11:09.544Z,7.90
2022-12-23T08:12:09.108Z,7.80
2022-12-23T08:13:09.483Z,7.70
2022-12-23T08:14:09.094Z,8.40
2022-12-23T08:15:09.102Z,9.20
2022-12-23T08:16:09.243Z,8.10
2022-12-23T08:17:09.281Z,8.20
2022-12-23T08:18:09.046Z,8.40
2022-12-23T08:19:09.331Z,8.10
2022-12-23T08:20:09.120Z,8.10
2022-12-23T08:21:09.140Z,9.30
2022-12-23T08:22:09.010Z,8.20
2022-12-23T08:23:09.003Z,8.10
2022-12-23T08:24:09.363Z,7.70
2022-12-23T08:25:09.364Z,8.90
2022-12-23T08:26:09.393Z,8.00
2022-12-23T08:27:09.245Z,7.30
2022-12-23T08:28:09.271Z,6.90
2022-12-23T08:29:09.266Z,7.10
2022-12-23T08:30:08.976Z,7.20
2022-12-23T08:31:09.402Z,7.60
2022-12-23T08:32:09.277Z,7.40
2022-12-23T08:33:09.008Z,7.00
2022-12-23T08:34:09.043Z,7.60
2022-12-23T08:35:09.022Z,7.40
2022-12-23T08:36:08.986Z,8.10
2022-12-23T08:37:09.045Z,7.80
2022-12-23T08:38:09.038Z,7.70
2022-12-23T08:39:09.129Z,7.70
2022-12-23T08:40:08.960Z,7.50
2022-12-23T08:41:08.931Z,7.90
2022-12-23T08:42:08.928Z,7.50
2022-12-23T08:43:09.142Z,8.00
2022-12-23T08:44:09.351Z,8.50
2022-12-23T08:45:09.068Z,8.20
2022-12-23T08:46:08.973Z,7.90
2022-12-23T08:47:09.087Z,8.10
2022-12-23T08:48:09.089Z,8.00
2022-12-23T08:49:09.113Z,8.30
2022-12-23T08:50:09.521Z,7.70
2022-12-23T08:51:08.907Z,8.00
2022-12-23T08:52:09.735Z,8.30
2022-12-23T08:53:09.712Z,8.00
2022-12-23T08:54:09.221Z,8.00
2022-12-23T08:55:08.833Z,8.50
2022-12-23T08:56:09.277Z,8.20
2022-12-23T08:57:09.846Z,8.00
2022-12-23T08:58:09.036Z,8.60
2022-12-23T08:59:13.351Z,8.30
2022-12-23T09:00:09.396Z,8.60
2022-12-23T09:01:09.515Z,9.00
2022-12-23T09:02:08.962Z,9.00
2022-12-23T09:03:09.381Z,8.10
2022-12-23T09:04:09.496Z,8.00
2022-12-23T09:05:08.887Z,8.10
2022-12-23T09:06:08.812Z,7.90
2022-12-23T09:07:09.017Z,8.80
2022-12-23T09:08:09.132Z,8.30
2022-12-23T09:09:09.327Z,8.20
2022-12-23T09:10:09.326Z,8.30
2022-12-23T09:11:08.742Z,8.90
2022-12-23T09:12:08.741Z,8.80
2022-12-23T09:13:08.734Z,8.70
2022-12-23T09:14:08.834Z,8.10
2022-12-23T09:15:08.798Z,8.20
2022-12-23T09:16:08.779Z,8.70
2022-12-23T09:17:08.762Z,8.50
2022-12-23T09:18:08.675Z,8.70
2022-12-23T09:19:08.775Z,8.20
2022-12-23T09:20:08.793Z,8.30
2022-12-23T09:21:08.792Z,8.60
2022-12-23T09:22:08.663Z,8.40
2022-12-23T09:23:08.812Z,8.60
2022-12-23T09:24:08.739Z,8.50
2022-12-23T09:25:08.658Z,8.80
2022-12-23T09:26:08.620Z,8.40
2022-12-23T09:27:08.854Z,8.60
2022-12-23T09:28:08.747Z,9.20
2022-12-23T09:29:08.753Z,8.40
2022-12-23T09:30:08.600Z,8.30
2022-12-23T09:31:08.648Z,8.40
2022-12-23T09:32:08.580Z,8.40
2022-12-23T09:33:08.994Z,8.60
2022-12-23T09:34:09.000Z,9.00
2022-12-23T09:35:09.003Z,8.00
2022-12-23T09:36:09.027Z,8.40
2022-12-23T09:37:09.010Z,8.70
2022-12-23T09:38:09.022Z,8.50
2022-12-23T09:39:09.020Z,8.00
2022-12-23T09:40:08.920Z,8.40
2022-12-23T09:41:09.037Z,8.70
2022-12-23T09:42:09.041Z,8.20
2022-12-23T09:43:08.942Z,7.80
2022-12-23T09:44:08.847Z,7.80
2022-12-23T09:45:09.058Z,8.10
2022-12-23T09:46:08.509Z,7.80
2022-12-23T09:47:09.178Z,7.60
2022-12-23T09:48:08.471Z,7.70
2022-12-23T09:49:08.442Z,7.70
2022-12-23T09:50:08.486Z,7.80
2022-12-23T09:51:08.587Z,7.60
2022-12-23T09:52:08.597Z,7.70
2022-12-23T09:53:08.611Z,7.70
2022-12-23T09:54:13.393Z,7.90
2022-12-23T09:55:08.725Z,7.90
2022-12-23T09:56:08.729Z,7.60
2022-12-23T09:57:08.739Z,7.70
2022-12-23T09:58:08.846Z,8.10
2022-12-23T09:59:08.577Z,7.40
2022-12-23T10:00:08.855Z,8.20
2022-12-23T10:01:08.965Z,7.90
2022-12-23T10:02:09.201Z,7.90
2022-12-23T10:03:08.506Z,8.10
2022-12-23T10:04:08.732Z,7.70
2022-12-23T10:05:08.404Z,8.20
2022-12-23T10:06:08.384Z,7.70
2022-12-23T10:07:08.496Z,7.90
2022-12-23T10:08:08.726Z,8.10
2022-12-23T10:09:08.515Z,8.10
2022-12-23T10:10:09.034Z,8.40
2022-12-23T10:11:09.133Z,7.70
2022-12-23T10:12:08.934Z,8.00
2022-12-23T10:13:08.655Z,7.90
2022-12-23T10:14:09.045Z,7.30
2022-12-23T10:15:08.359Z,8.30
2022-12-23T10:16:08.417Z,7.70
2022-12-23T10:17:08.295Z,8.00
2022-12-23T10:18:08.375Z,7.40
2022-12-23T10:19:08.383Z,7.20
2022-12-23T10:20:08.483Z,7.30
2022-12-23T10:21:08.483Z,7.00
2022-12-23T10:22:08.489Z,7.40
2022-12-23T10:23:08.626Z,6.90
2022-12-23T10:24:08.313Z,7.20
2022-12-23T10:25:08.732Z,6.70
2022-12-23T10:26:08.255Z,7.00
2022-12-23T10:27:08.251Z,6.80
2022-12-23T10:28:08.231Z,6.40
2022-12-23T10:29:08.323Z,6.80
2022-12-23T10:30:33.802Z,6.80
2022-12-23T10:31:38.704Z,6.80
2022-12-23T10:32:08.494Z,7.30
2022-12-23T10:33:08.472Z,7.20
2022-12-23T10:34:08.190Z,6.50
2022-12-23T10:35:08.492Z,7.30
2022-12-23T10:36:08.267Z,6.80
2022-12-23T10:37:08.230Z,7.00
2022-12-23T10:38:08.181Z,6.70
2022-12-23T10:39:08.183Z,6.60
2022-12-23T10:40:08.271Z,7.10
2022-12-23T10:41:09.427Z,7.30
2022-12-23T10:42:08.126Z,6.70
2022-12-23T10:43:08.133Z,6.10
2022-12-23T10:44:08.129Z,6.50
2022-12-23T10:45:08.148Z,6.90
2022-12-23T10:46:08.197Z,6.60
2022-12-23T10:47:08.270Z,7.00
2022-12-23T10:48:12.157Z,6.60
2022-12-23T10:49:08.170Z,6.80
2022-12-23T10:50:08.786Z,6.70
2022-12-23T10:51:08.262Z,6.60
2022-12-23T10:52:08.281Z,6.60
2022-12-23T10:53:08.281Z,7.00
2022-12-23T10:54:08.288Z,6.70
2022-12-23T10:55:08.289Z,7.00
2022-12-23T10:56:08.087Z,7.00
2022-12-23T10:57:08.302Z,7.10
2022-12-23T10:58:08.234Z,6.90
2022-12-23T10:59:08.316Z,6.70
2022-12-23T11:00:08.325Z,7.10
2022-12-23T11:01:14.996Z,6.90
2022-12-23T11:02:08.591Z,6.50
2022-12-23T11:03:08.088Z,7.10
2022-12-23T11:04:07.973Z,6.40
2022-12-23T11:05:07.991Z,6.90
2022-12-23T11:06:08.065Z,6.80
2022-12-23T11:07:42.210Z,7.00
2022-12-23T11:08:08.035Z,6.40
2022-12-23T11:09:07.965Z,7.00
2022-12-23T11:10:08.009Z,7.40
2022-12-23T11:11:07.928Z,6.60
2022-12-23T11:12:08.002Z,7.00
2022-12-23T11:13:08.001Z,6.50
2022-12-23T11:14:08.145Z,6.90
2022-12-23T11:15:07.972Z,7.00
2022-12-23T11:16:08.000Z,6.50
2022-12-23T11:17:07.948Z,6.80
2022-12-23T11:18:08.385Z,5.90
2022-12-23T11:19:07.862Z,6.40
2022-12-23T11:20:08.384Z,6.80
2022-12-23T11:21:08.477Z,6.70
2022-12-23T11:22:07.900Z,6.80
2022-12-23T11:23:08.416Z,6.70
2022-12-23T11:24:08.238Z,6.10
2022-12-23T11:25:07.825Z,6.50
2022-12-23T11:26:08.029Z,6.20
2022-12-23T11:27:07.969Z,6.50
2022-12-23T11:28:07.824Z,6.70
2022-12-23T11:29:07.841Z,6.50
2022-12-23T11:30:07.832Z,6.80
2022-12-23T11:31:08.392Z,6.20
2022-12-23T11:32:08.079Z,5.90
2022-12-23T11:33:07.782Z,6.20
2022-12-23T11:34:08.590Z,6.90
2022-12-23T11:35:07.995Z,6.30
2022-12-23T11:36:08.169Z,5.90
2022-12-23T11:37:08.505Z,6.10
2022-12-23T11:38:08.711Z,5.90
2022-12-23T11:39:08.574Z,6.10
2022-12-23T11:40:07.771Z,5.50
2022-12-23T11:41:08.121Z,6.00
2022-12-23T11:42:07.719Z,6.10
2022-12-23T11:43:07.779Z,6.00
2022-12-23T11:44:07.827Z,5.70
2022-12-23T11:45:07.946Z,5.60
2022-12-23T11:46:07.975Z,6.00
2022-12-23T11:47:07.951Z,6.40
2022-12-23T11:48:08.018Z,5.80
2022-12-23T11:49:08.170Z,5.80
2022-12-23T11:50:08.179Z,6.00
2022-12-23T11:51:07.678Z,5.80
2022-12-23T11:52:07.841Z,6.00
2022-12-23T11:53:07.617Z,6.20
2022-12-23T11:54:08.424Z,6.00
2022-12-23T11:55:08.415Z,5.90
2022-12-23T11:56:07.644Z,6.40
2022-12-23T11:57:07.759Z,6.70
2022-12-23T11:58:07.645Z,5.90
2022-12-23T11:59:07.732Z,5.40
2022-12-23T12:00:07.631Z,5.30
2022-12-23T12:01:07.687Z,5.80
2022-12-23T12:02:07.664Z,5.60
2022-12-23T12:03:07.597Z,5.60
2022-12-23T12:04:07.585Z,5.70
2022-12-23T12:05:07.627Z,5.80
2022-12-23T12:06:07.557Z,6.40
2022-12-23T12:07:07.671Z,6.30
2022-12-23T12:08:07.538Z,5.70
2022-12-23T12:09:07.709Z,5.50
2022-12-23T12:10:07.680Z,5.40
2022-12-23T12:11:07.685Z,4.90
2022-12-23T12:12:07.487Z,5.90
2022-12-23T12:13:07.473Z,6.20
2022-12-23T12:14:07.736Z,6.10
2022-12-23T12:15:07.741Z,5.60
2022-12-23T12:16:07.744Z,5.30
2022-12-23T12:17:07.644Z,5.30
2022-12-23T12:18:07.456Z,5.80
2022-12-23T12:19:07.467Z,5.30
2022-12-23T12:20:07.484Z,5.70
2022-12-23T12:21:07.578Z,5.60
2022-12-23T12:22:07.627Z,5.30
2022-12-23T12:23:07.411Z,5.70
2022-12-23T12:24:18.346Z,6.10
2022-12-23T12:25:07.801Z,5.70
2022-12-23T12:26:07.411Z,5.60
2022-12-23T12:27:07.820Z,5.50
2022-12-23T12:28:07.627Z,5.90
2022-12-23T12:29:07.924Z,5.60
2022-12-23T12:30:08.953Z,5.80
2022-12-23T12:31:07.667Z,5.50
2022-12-23T12:32:07.862Z,5.80
2022-12-23T12:33:07.971Z,5.70
2022-12-23T12:34:07.375Z,5.70
2022-12-23T12:35:07.663Z,6.00
2022-12-23T12:36:08.031Z,5.90
2022-12-23T12:37:08.043Z,5.70
2022-12-23T12:38:07.480Z,5.90
2022-12-23T12:39:07.899Z,5.60
2022-12-23T12:40:07.536Z,5.80
2022-12-23T12:41:07.448Z,6.00
2022-12-23T12:42:07.983Z,6.50
2022-12-23T12:43:07.359Z,7.30
2022-12-23T12:44:07.331Z,6.40
2022-12-23T12:45:07.342Z,6.10
2022-12-23T12:46:07.363Z,6.00
2022-12-23T12:47:21.825Z,6.80
2022-12-23T12:48:16.468Z,6.20
2022-12-23T12:49:07.365Z,6.30
2022-12-23T12:50:07.583Z,6.40
2022-12-23T12:51:07.614Z,6.40
2022-12-23T12:52:07.797Z,6.20
2022-12-23T12:53:07.584Z,6.90
2022-12-23T12:54:07.640Z,6.40
2022-12-23T12:55:07.596Z,6.00
2022-12-23T12:56:07.256Z,6.20
2022-12-23T12:57:07.282Z,6.40
2022-12-23T12:58:07.423Z,6.80
2022-12-23T12:59:07.491Z,6.30
2022-12-23T13:00:07.283Z,6.60
2022-12-23T13:01:07.521Z,7.10
2022-12-23T13:02:07.542Z,6.80
2022-12-23T13:03:07.814Z,6.90
2022-12-23T13:04:07.254Z,6.60
2022-12-23T13:05:07.268Z,6.60
2022-12-23T13:06:07.186Z,6.70
2022-12-23T13:07:07.715Z,6.80
2022-12-23T13:08:07.389Z,7.40
2022-12-23T13:09:07.905Z,6.90
2022-12-23T13:10:07.754Z,7.40
2022-12-23T13:11:07.123Z,7.20
2022-12-23T13:12:07.302Z,7.50
2022-12-23T13:13:07.416Z,7.20
2022-12-23T13:14:07.322Z,6.80
2022-12-23T13:15:07.942Z,6.70
2022-12-23T13:16:08.012Z,6.90
2022-12-23T13:17:07.608Z,7.10
2022-12-23T13:18:07.354Z,7.30
2022-12-23T13:19:07.579Z,8.20
2022-12-23T13:20:07.947Z,7.50